Latest Weather Observations for PORTABLE QFRM (Anduramba)

IDQ60801

Issued at 6:32 pm EST Saturday 25 June 2022 (issued every 10 minutes, with the page automatically refreshed every 10 minutes)

About weather observations | Map of weather stations | Latest weather observations for QLD | Other Formats
Station Details ID: 250115 Name: PORTABLE QFRM Lat: -27.19 Lon: 152.09 Height: 744.0 m

Portable automatic weather stations (PAWS) are operated by other organisations, such as Fire and Emergency Services, and are included here by agreement. Portable stations may be deployed to a location for a short period and their location may be subject to change without notice. Wind observations from these stations are provided from heights of either three (3) or ten (10) metres above ground level (AGL).

Data from the previous 72 hours. | See also: Recent months for locations in Queensland
Date/Time
EST
Temp
°C
App
Temp
°C
Dew
Point
°C
Rel
Hum
%
Delta-T
°C
Wind Press
QNH
hPa
Press
MSL
hPa
Rain since
9am
mm
Dir  Spd
km/h
Gust
km/h
Spd
kts
Gust
kts
25/06:20pm 14.4 10.1 1.3 41 5.9 SW 13 13 7 7 - - 0.0
25/06:10pm 14.4 9.8 1.3 41 5.9 SW 15 15 8 8 - - 0.0
25/06:00pm 14.4 9.8 1.3 41 5.9 SW 15 15 8 8 - - 0.0
25/05:50pm 14.4 10.2 1.4 41 5.9 SW 13 15 7 8 - - 0.0
25/05:40pm 14.5 10.3 1.4 41 5.9 SW 13 15 7 8 - - 0.0
25/05:30pm 14.6 10.3 1.3 40 6.0 SW 13 15 7 8 - - 0.0
25/05:20pm 14.8 10.6 1.6 40 6.0 SW 13 13 7 7 - - 0.0
25/05:10pm 15.1 11.3 1.8 40 6.1 SW 11 13 6 7 - - 0.0
25/05:00pm 15.6 12.2 2.1 40 6.3 SW 9 11 5 6 - - 0.0
25/04:50pm 16.0 12.5 1.5 37 6.7 SSW 9 11 5 6 - - 0.0
25/04:40pm 16.1 12.7 1.6 37 6.7 SSW 9 9 5 5 - - 0.0
25/04:30pm 16.3 13.2 1.4 36 6.8 SSW 7 9 4 5 - - 0.0
25/04:20pm 16.7 13.3 1.6 36 7.0 SSW 9 11 5 6 - - 0.0
25/04:10pm 16.5 13.0 1.1 35 7.0 S 9 11 5 6 - - 0.0
25/04:00pm 16.6 13.8 2.2 38 6.7 S 6 7 3 4 - - 0.0
25/03:50pm 16.9 14.2 2.4 37 6.8 S 6 9 3 5 - - 0.0
25/03:40pm 17.2 14.8 2.0 36 7.1 S 4 6 2 3 - - 0.0
25/03:30pm 17.2 14.9 2.5 37 7.0 S 4 7 2 4 - - 0.0
25/03:20pm 17.3 14.4 2.6 37 7.0 S 7 9 4 5 - - 0.0
25/03:10pm 17.5 14.6 2.4 36 7.1 S 7 13 4 7 - - 0.0
25/03:00pm 18.1 14.4 2.1 34 7.6 SW 11 13 6 7 - - 0.0
25/02:50pm 18.1 15.2 2.7 35 7.4 SW 7 11 4 6 - - 0.0
25/02:40pm 17.4 14.4 1.9 35 7.3 S 7 11 4 6 - - 0.0
25/02:30pm 17.0 13.7 2.2 37 6.9 S 9 15 5 8 - - 0.0
25/02:20pm 17.2 13.3 1.1 33 7.4 S 11 15 6 8 - - 0.0
25/02:10pm 17.2 13.3 1.0 33 7.4 S 11 15 6 8 - - 0.0
25/02:00pm 17.2 13.4 1.7 35 7.2 S 11 13 6 7 - - 0.0
25/01:50pm 17.2 13.3 1.4 34 7.3 S 11 15 6 8 - - 0.0
25/01:40pm 16.8 12.6 1.4 35 7.1 SSW 13 20 7 11 - - 0.0
25/01:30pm 16.7 12.5 1.5 36 7.0 S 13 17 7 9 - - 0.0
25/01:20pm 16.5 11.8 1.1 35 7.0 S 15 22 8 12 - - 0.0
25/01:10pm 16.6 11.9 1.2 35 7.1 SSE 15 19 8 10 - - 0.0
25/01:00pm 16.4 11.7 0.9 35 7.1 S 15 19 8 10 - - 0.0
25/12:50pm 16.6 12.0 1.4 36 7.0 S 15 20 8 11 - - 0.0
25/12:40pm 16.6 12.4 1.7 36 6.9 S 13 17 7 9 - - 0.0
25/12:30pm 16.3 11.2 0.7 34 7.1 S 17 22 9 12 - - 0.0
25/12:20pm 16.3 11.3 1.2 36 6.9 S 17 22 9 12 - - 0.0
25/12:10pm 16.7 12.4 0.9 34 7.2 SSW 13 17 7 9 - - 0.0
25/12:00pm 16.7 12.0 1.2 35 7.1 SW 15 19 8 10 - - 0.0
25/11:50am 16.3 12.3 0.8 35 7.0 S 11 17 6 9 - - 0.0
25/11:40am 16.0 11.9 2.3 39 6.4 S 13 15 7 8 - - 0.0
25/11:30am 15.8 11.3 2.2 40 6.3 S 15 17 8 9 - - 0.0
25/11:20am 15.6 11.5 2.2 40 6.2 S 13 15 7 8 - - 0.0
25/11:10am 15.5 10.9 1.8 39 6.3 S 15 19 8 10 - - 0.0
25/11:00am 15.1 9.8 1.9 41 6.1 SSW 19 20 10 11 - - 0.0
25/10:50am 14.9 9.9 1.6 40 6.1 S 17 20 9 11 - - 0.0
25/10:40am 14.9 10.4 2.1 42 5.9 S 15 20 8 11 - - 0.0
25/10:30am 14.9 11.6 2.3 42 5.8 S 9 15 5 8 - - 0.0
25/10:20am 14.3 10.2 2.5 45 5.5 SSE 13 19 7 10 - - 0.0
25/10:10am 14.2 10.2 2.9 46 5.3 S 13 19 7 10 - - 0.0
25/10:00am 14.0 10.0 2.6 46 5.3 S 13 19 7 10 - - 0.0
25/09:50am 13.6 8.7 1.9 45 5.3 S 17 20 9 11 - - 0.0
25/09:40am 13.4 8.5 1.9 45 5.2 S 17 24 9 13 - - 0.0
25/09:30am 13.3 8.9 2.6 48 4.9 S 15 19 8 10 - - 0.0
25/09:20am 12.9 8.1 2.5 49 4.8 S 17 22 9 12 - - 0.0
25/09:10am 12.9 8.9 3.1 51 4.5 S 13 19 7 10 - - 0.0
25/09:00am 12.5 7.1 2.2 49 4.7 S 20 24 11 13 - - 0.0
25/08:50am 12.2 6.9 1.9 49 4.6 S 19 20 10 11 - - 0.0
25/08:40am 11.7 6.4 1.7 50 4.4 S 19 22 10 12 - - 0.0
25/08:30am 11.6 6.6 1.6 50 4.4 S 17 20 9 11 - - 0.0
25/08:20am 11.4 6.1 1.8 51 4.3 S 19 20 10 11 - - 0.0
25/08:10am 11.3 5.3 1.1 49 4.5 S 22 26 12 14 - - 0.0
25/08:00am 11.3 4.5 1.1 49 4.5 SSW 26 26 14 14 - - 0.0
25/07:50am 11.5 4.3 1.0 48 4.6 SSW 28 30 15 16 - - 0.0
25/07:40am 11.7 4.5 0.8 47 4.7 SSW 28 30 15 16 - - 0.0
25/07:30am 11.6 4.4 0.7 47 4.7 SSW 28 30 15 16 - - 0.0
25/07:20am 11.6 4.4 0.8 47 4.7 SSW 28 30 15 16 - - 0.0
25/07:10am 11.5 4.7 0.6 47 4.7 SSW 26 30 14 16 - - 0.0
25/07:00am 11.5 4.6 0.4 46 4.8 SSW 26 28 14 15 - - 0.0
25/06:50am 11.3 5.2 0.4 47 4.7 SSW 22 26 12 14 - - 0.0
25/06:40am 11.3 5.2 0.3 46 4.7 SSW 22 24 12 13 - - 0.0
25/06:30am 11.4 4.9 0.3 46 4.8 SSW 24 28 13 15 - - 0.0
25/06:20am 11.4 4.5 0.4 46 4.7 SSW 26 28 14 15 - - 0.0
25/06:10am 11.4 4.9 0.1 45 4.8 SSW 24 26 13 14 - - 0.0
25/06:00am 11.5 5.4 0.3 46 4.8 SSW 22 26 12 14 - - 0.0
25/05:50am 11.6 4.7 0.3 46 4.9 SSW 26 30 14 16 - - 0.0
25/05:40am 11.6 4.3 0.2 45 4.9 SW 28 32 15 17 - - 0.0
25/05:30am 11.5 4.2 0.2 45 4.8 SW 28 28 15 15 - - 0.0
25/05:20am 11.5 4.9 -0.1 44 4.9 SSW 24 28 13 15 - - 0.0
25/05:10am 11.3 5.1 -0.1 45 4.8 SSW 22 26 12 14 - - 0.0
25/05:00am 11.3 4.8 0.1 46 4.8 SSW 24 26 13 14 - - 0.0
25/04:50am 11.2 4.3 0.2 46 4.7 SSW 26 26 14 14 - - 0.0
25/04:40am 11.3 4.4 0.2 46 4.8 SSW 26 26 14 14 - - 0.0
25/04:30am 11.4 4.5 0.1 45 4.8 SSW 26 30 14 16 - - 0.0
25/04:20am 11.5 5.0 0.1 45 4.9 SSW 24 26 13 14 - - 0.0
25/04:10am 11.7 5.5 0.0 44 5.0 SSW 22 26 12 14 - - 0.0
25/04:00am 11.8 5.7 0.1 44 5.0 SSW 22 24 12 13 - - 0.0
25/03:50am 11.8 5.3 0.2 45 5.0 SSW 24 26 13 14 - - 0.0
25/03:40am 11.8 5.0 0.5 46 4.9 SW 26 28 14 15 - - 0.0
25/03:30am 11.9 5.1 0.6 46 4.9 SW 26 28 14 15 - - 0.0
25/03:20am 11.8 4.6 0.8 47 4.8 SW 28 30 15 16 - - 0.0
25/03:10am 12.0 4.4 0.6 45 5.0 SW 30 32 16 17 - - 0.0
25/03:00am 12.0 4.0 0.5 45 5.0 SW 32 33 17 18 - - 0.0
25/02:50am 12.0 4.0 0.6 45 5.0 SW 32 32 17 17 - - 0.0
25/02:40am 12.1 4.5 0.4 44 5.1 SW 30 32 16 17 - - 0.0
25/02:30am 12.0 4.8 0.5 45 5.0 SW 28 30 15 16 - - 0.0
25/02:20am 12.2 5.0 0.5 44 5.1 SW 28 30 15 16 - - 0.0
25/02:10am 12.4 4.3 -0.2 42 5.4 SW 32 33 17 18 - - 0.0
25/02:00am 12.4 4.3 -0.3 41 5.4 SW 32 33 17 18 - - 0.0
25/01:50am 12.3 4.2 -0.1 42 5.3 SW 32 33 17 18 - - 0.0
25/01:40am 12.4 4.4 0.1 43 5.3 SW 32 33 17 18 - - 0.0
25/01:30am 12.4 4.1 -0.2 42 5.4 SW 33 33 18 18 - - 0.0
25/01:20am 12.5 4.2 -0.2 41 5.5 WSW 33 33 18 18 - - 0.0
25/01:10am 12.3 4.0 -0.3 42 5.4 WSW 33 33 18 18 - - 0.0
25/01:00am 12.3 4.2 -0.1 42 5.3 SW 32 33 17 18 - - 0.0
25/12:50am 12.3 4.6 0.0 42 5.3 SW 30 32 16 17 - - 0.0
25/12:40am 12.3 4.6 0.1 43 5.3 SW 30 32 16 17 - - 0.0
25/12:30am 12.3 4.6 0.0 42 5.3 SW 30 32 16 17 - - 0.0
25/12:20am 12.2 4.5 0.2 43 5.2 SW 30 32 16 17 - - 0.0
25/12:10am 12.2 4.9 0.1 43 5.2 SW 28 30 15 16 - - 0.0
25/12:00am 12.2 4.9 0.1 43 5.2 SW 28 30 15 16 - - 0.0
 
Date/Time
EST
Temp
°C
App
Temp
°C
Dew
Point
°C
Rel
Hum
%
Delta-T
°C
Wind Press
QNH
hPa
Press
MSL
hPa
Rain since
9am
mm
Dir  Spd
km/h
Gust
km/h
Spd
kts
Gust
kts
24/11:50pm 12.3 5.0 0.1 43 5.3 SW 28 30 15 16 - - 0.0
24/11:40pm 12.4 5.1 0.1 43 5.3 SW 28 28 15 15 - - 0.0
24/11:30pm 12.5 5.6 0.1 42 5.4 SW 26 28 14 15 - - 0.0
24/11:20pm 12.5 5.6 0.0 42 5.4 SW 26 28 14 15 - - 0.0
24/11:10pm 12.5 5.9 -0.3 41 5.5 SSW 24 26 13 14 - - 0.0
24/11:00pm 12.6 6.0 -0.1 41 5.5 SSW 24 24 13 13 - - 0.0
24/10:50pm 12.6 6.1 0.0 42 5.4 SSW 24 26 13 14 - - 0.0
24/10:40pm 12.7 6.1 -0.1 41 5.5 SSW 24 26 13 14 - - 0.0
24/10:30pm 12.8 6.2 -0.3 40 5.6 SSW 24 26 13 14 - - 0.0
24/10:20pm 12.8 6.2 -0.3 40 5.6 SW 24 26 13 14 - - 0.0
24/10:10pm 12.8 6.6 -0.3 40 5.6 SSW 22 24 12 13 - - 0.0
24/10:00pm 12.9 6.7 -0.5 39 5.7 SW 22 24 12 13 - - 0.0
24/09:50pm 12.9 6.7 -0.4 40 5.7 SW 22 22 12 12 - - 0.0
24/09:40pm 12.9 6.7 -0.4 40 5.7 SW 22 22 12 12 - - 0.0
24/09:30pm 12.9 7.1 -0.3 40 5.7 SW 20 22 11 12 - - 0.0
24/09:20pm 13.0 7.2 -0.4 39 5.8 SW 20 20 11 11 - - 0.0
24/09:10pm 13.1 7.3 -0.3 39 5.8 SW 20 22 11 12 - - 0.0
24/09:00pm 13.1 7.3 -0.3 39 5.8 SW 20 20 11 11 - - 0.0
24/08:50pm 13.3 7.1 -0.4 39 5.9 WSW 22 24 12 13 - - 0.0
24/08:40pm 13.1 6.9 -0.5 39 5.8 WSW 22 22 12 12 - - 0.0
24/08:30pm 13.2 7.1 0.3 41 5.6 WSW 22 24 12 13 - - 0.0
24/08:20pm 13.1 7.0 0.2 41 5.6 WSW 22 24 12 13 - - 0.0
24/08:10pm 13.1 6.9 0.0 40 5.7 WSW 22 24 12 13 - - 0.0
24/08:00pm 13.0 6.5 0.1 41 5.6 WSW 24 24 13 13 - - 0.0
24/07:50pm 13.0 6.5 0.1 41 5.6 WSW 24 26 13 14 - - 0.0
24/07:40pm 12.9 7.1 0.1 41 5.6 WSW 20 22 11 12 - - 0.0
24/07:30pm 12.9 7.3 0.1 41 5.6 WSW 19 19 10 10 - - 0.0
24/07:20pm 13.1 7.5 0.0 40 5.7 WSW 19 20 10 11 - - 0.0
24/07:10pm 13.1 7.3 0.0 40 5.7 WSW 20 22 11 12 - - 0.0
24/07:00pm 13.2 7.6 0.1 40 5.7 W 19 20 10 11 - - 0.0
24/06:50pm 13.3 8.1 0.0 40 5.8 W 17 19 9 10 - - 0.0
24/06:40pm 13.3 8.1 0.1 40 5.7 WSW 17 19 9 10 - - 0.0
24/06:30pm 13.4 7.6 0.1 40 5.8 WSW 20 22 11 12 - - 0.0
24/06:20pm 13.5 7.7 0.0 39 5.9 WSW 20 22 11 12 - - 0.0
24/06:10pm 13.6 7.8 -0.1 39 6.0 WSW 20 22 11 12 - - 0.0
24/06:00pm 13.9 8.1 -0.1 38 6.1 WSW 20 20 11 11 - - 0.0
24/05:50pm 14.0 8.3 -0.5 37 6.3 WSW 19 20 10 11 - - 0.0
24/05:40pm 14.1 8.4 -0.6 36 6.3 WSW 19 20 10 11 - - 0.0
24/05:30pm 14.2 8.5 -0.7 36 6.4 WSW 19 19 10 10 - - 0.0
24/05:20pm 14.3 8.6 -0.4 36 6.4 SW 19 20 10 11 - - 0.0
24/05:10pm 14.7 9.0 -0.4 35 6.6 SW 19 20 10 11 - - 0.0
24/05:00pm 15.1 9.9 -0.1 35 6.7 SW 17 19 9 10 - - 0.0
24/04:50pm 15.4 10.2 -0.2 34 6.9 WSW 17 17 9 9 - - 0.0
24/04:40pm 15.7 10.5 -0.2 34 7.0 WSW 17 19 9 10 - - 0.0
24/04:30pm 16.0 10.8 -0.2 33 7.2 SW 17 19 9 10 - - 0.0
24/04:20pm 16.2 10.5 -0.7 31 7.4 SW 19 20 10 11 - - 0.0
24/04:10pm 16.5 11.2 -0.5 31 7.5 SW 17 20 9 11 - - 0.0
24/04:00pm 16.8 11.9 -0.5 31 7.7 SW 15 17 8 9 - - 0.0
24/03:50pm 16.8 11.1 -0.4 31 7.6 WSW 19 22 10 12 - - 0.0
24/03:40pm 16.9 10.6 -1.0 29 7.9 WSW 22 26 12 14 - - 0.0
24/03:30pm 17.0 11.7 -0.3 31 7.7 SW 17 20 9 11 - - 0.0
24/03:20pm 17.1 11.2 -0.5 30 7.8 SW 20 22 11 12 - - 0.0
24/03:10pm 17.2 11.4 -0.1 31 7.8 SW 20 24 11 13 - - 0.0
24/03:00pm 17.5 11.6 -0.7 29 8.1 WSW 20 26 11 14 - - 0.0
24/02:50pm 17.4 11.7 -0.9 29 8.1 WSW 19 22 10 12 - - 0.0
24/02:40pm 17.5 12.3 0.1 31 7.9 SW 17 20 9 11 - - 0.0
24/02:30pm 17.6 11.9 -1.1 28 8.2 WSW 19 24 10 13 - - 0.0
24/02:20pm 17.9 12.6 -0.8 28 8.3 SW 17 22 9 12 - - 0.0
24/02:10pm 17.7 12.5 -0.1 30 8.0 SW 17 22 9 12 - - 0.0
24/02:00pm 17.8 11.9 -0.9 28 8.3 WSW 20 24 11 13 - - 0.0
24/01:50pm 17.9 12.1 -0.4 29 8.2 WSW 20 26 11 14 - - 0.0
24/01:40pm 17.7 11.9 0.1 30 8.0 WSW 20 26 11 14 - - 0.0
24/01:30pm 17.8 12.5 -0.4 29 8.2 WSW 17 24 9 13 - - 0.0
24/01:20pm 17.7 12.9 0.5 31 7.8 WSW 15 20 8 11 - - 0.0
24/01:10pm 17.5 11.9 -0.1 30 7.9 W 19 24 10 13 - - 0.0
24/01:00pm 17.4 12.1 1.7 34 7.3 WSW 19 22 10 12 - - 0.0
24/12:50pm 17.2 11.2 0.9 33 7.5 WSW 22 24 12 13 - - 0.0
24/12:40pm 16.9 11.1 -0.4 31 7.7 SW 20 28 11 15 - - 0.0
24/12:30pm 16.6 10.4 -0.5 31 7.6 SW 22 28 12 15 - - 0.0
24/12:20pm 16.8 11.3 0.3 32 7.4 SW 19 24 10 13 - - 0.0
24/12:10pm 17.0 11.8 0.1 32 7.6 WSW 17 22 9 12 - - 0.0
24/12:00pm 16.5 10.8 0.3 33 7.3 WSW 20 26 11 14 - - 0.0
24/11:50am 16.3 9.2 -1.2 30 7.6 W 26 30 14 16 - - 0.0
24/11:40am 16.6 10.9 -0.4 31 7.5 W 19 22 10 12 - - 0.0
24/11:30am 16.5 11.0 0.8 34 7.1 WSW 19 24 10 13 - - 0.0
24/11:20am 16.1 10.6 0.7 35 7.0 W 19 20 10 11 - - 0.0
24/11:10am 16.0 10.5 0.9 36 6.8 W 19 24 10 13 - - 0.0
24/11:00am 16.1 11.0 0.8 35 6.9 WSW 17 19 9 10 - - 0.0
24/10:50am 15.9 11.1 0.3 34 7.0 WSW 15 19 8 10 - - 0.0
24/10:40am 15.6 10.5 1.0 37 6.6 WSW 17 22 9 12 - - 0.0
24/10:30am 15.6 10.8 0.4 35 6.8 SW 15 19 8 10 - - 0.0
24/10:20am 15.5 10.8 1.1 37 6.5 WSW 15 19 8 10 - - 0.0
24/10:10am 15.3 10.8 2.1 41 6.1 WSW 15 20 8 11 - - 0.0
24/10:00am 15.1 10.4 0.9 38 6.4 WSW 15 20 8 11 - - 0.0
24/09:50am 14.6 10.0 1.3 40 6.0 SW 15 19 8 10 - - 0.0
24/09:40am 14.4 9.7 1.0 40 6.0 SW 15 19 8 10 - - 0.0
24/09:30am 14.1 9.5 1.8 43 5.6 SW 15 17 8 9 - - 0.0
24/09:20am 13.7 8.7 1.2 42 5.6 WSW 17 19 9 10 - - 0.0
24/09:10am 13.5 8.9 1.3 43 5.5 WSW 15 17 8 9 - - 0.0
24/09:00am 13.2 8.5 1.0 43 5.4 SW 15 17 8 9 - - 0.0
24/08:50am 13.0 7.8 0.3 41 5.5 SW 17 19 9 10 - - 0.0
24/08:40am 12.9 7.3 -0.1 41 5.6 SW 19 20 10 11 - - 0.0
24/08:30am 12.7 7.4 -0.5 40 5.6 SW 17 19 9 10 - - 0.0
24/08:20am 12.5 7.3 -0.2 41 5.5 SW 17 19 9 10 - - 0.0
24/08:10am 12.2 6.9 -0.3 42 5.3 SSW 17 17 9 9 - - 0.0
24/08:00am 12.1 6.8 -0.4 42 5.3 SSW 17 17 9 9 - - 0.0
24/07:50am 11.9 6.6 -0.3 43 5.2 SSW 17 19 9 10 - - 0.0
24/07:40am 11.8 6.5 -0.5 42 5.2 SSW 17 19 9 10 - - 0.0
24/07:30am 11.7 6.0 -0.4 43 5.1 SSW 19 20 10 11 - - 0.0
24/07:20am 11.6 5.9 -0.4 43 5.1 SSW 19 20 10 11 - - 0.0
24/07:10am 11.6 5.9 -0.4 43 5.1 SSW 19 20 10 11 - - 0.0
24/07:00am 11.4 5.5 -0.6 43 5.1 SSW 20 20 11 11 - - 0.0
24/06:50am 11.3 5.7 -0.3 44 4.9 SW 19 20 10 11 - - 0.0
24/06:40am 11.3 5.7 -0.2 45 4.9 SW 19 19 10 10 - - 0.0
24/06:30am 11.3 6.0 -0.4 44 4.9 SSW 17 17 9 9 - - 0.0
24/06:20am 11.3 6.1 0.0 45 4.8 SSW 17 17 9 9 - - 0.0
24/06:10am 11.4 5.8 0.1 45 4.8 SW 19 20 10 11 - - 0.0
24/06:00am 11.5 5.9 0.1 45 4.9 SW 19 20 10 11 - - 0.0
24/05:50am 11.4 5.8 0.1 45 4.8 SW 19 19 10 10 - - 0.0
24/05:40am 11.3 6.1 0.2 46 4.8 SW 17 19 9 10 - - 0.0
24/05:30am 11.5 6.2 -0.3 44 5.0 SW 17 19 9 10 - - 0.0
24/05:20am 11.4 6.2 0.1 45 4.8 SW 17 19 9 10 - - 0.0
24/05:10am 11.5 6.3 0.0 45 4.9 SW 17 17 9 9 - - 0.0
24/05:00am 11.6 6.4 0.0 45 5.0 SW 17 17 9 9 - - 0.0
24/04:50am 11.6 6.8 0.0 45 5.0 SW 15 17 8 9 - - 0.0
24/04:40am 11.7 6.9 0.2 45 4.9 SW 15 17 8 9 - - 0.0
24/04:30am 11.8 6.6 0.2 45 5.0 SW 17 17 9 9 - - 0.0
24/04:20am 11.9 7.1 0.2 44 5.0 SW 15 17 8 9 - - 0.0
24/04:10am 11.9 7.1 0.4 45 5.0 SW 15 15 8 8 - - 0.0
24/04:00am 12.0 7.2 0.1 44 5.1 SSW 15 15 8 8 - - 0.0
24/03:50am 12.2 7.0 0.0 43 5.2 SW 17 17 9 9 - - 0.0
24/03:40am 12.1 6.9 0.1 43 5.2 SW 17 19 9 10 - - 0.0
24/03:30am 12.0 6.4 0.2 44 5.1 SW 19 19 10 10 - - 0.0
24/03:20am 12.1 6.7 1.0 46 4.9 WSW 19 20 10 11 - - 0.0
24/03:10am 12.0 6.5 0.8 46 4.9 WSW 19 20 10 11 - - 0.0
24/03:00am 11.8 6.8 1.1 48 4.7 WSW 17 19 9 10 - - 0.0
24/02:50am 11.7 6.7 1.1 48 4.6 W 17 19 9 10 - - 0.0
24/02:40am 11.8 6.8 1.2 48 4.7 W 17 19 9 10 - - 0.0
24/02:30am 11.8 6.4 1.4 49 4.6 W 19 19 10 10 - - 0.0
24/02:20am 11.7 6.4 1.9 51 4.4 W 19 19 10 10 - - 0.0
24/02:10am 11.7 6.5 2.5 53 4.2 W 19 20 10 11 - - 0.0
24/02:00am 11.6 6.8 2.4 53 4.2 W 17 19 9 10 - - 0.0
24/01:50am 11.6 7.4 3.6 58 3.7 W 15 17 8 9 - - 0.0
24/01:40am 11.7 7.6 4.4 61 3.4 W 15 15 8 8 - - 0.0
24/01:30am 11.8 7.8 4.7 62 3.4 W 15 15 8 8 - - 0.0
24/01:20am 11.6 7.6 5.1 64 3.1 W 15 15 8 8 - - 0.0
24/01:10am 11.9 8.5 5.8 66 3.0 W 13 15 7 8 - - 0.0
24/01:00am 12.1 8.7 6.1 67 2.9 W 13 15 7 8 - - 0.0
24/12:50am 12.2 8.5 6.3 67 2.9 W 15 15 8 8 - - 0.0
24/12:40am 12.3 8.6 6.4 67 2.9 W 15 15 8 8 - - 0.0
24/12:30am 12.3 8.9 5.8 64 3.2 W 13 15 7 8 - - 0.0
24/12:20am 12.3 8.8 5.4 63 3.3 W 13 13 7 7 - - 0.0
24/12:10am 12.4 8.6 5.6 63 3.3 W 15 15 8 8 - - 0.0
24/12:00am 12.4 9.0 5.8 64 3.2 W 13 15 7 8 - - 0.0
 
Date/Time
EST
Temp
°C
App
Temp
°C
Dew
Point
°C
Rel
Hum
%
Delta-T
°C
Wind Press
QNH
hPa
Press
MSL
hPa
Rain since
9am
mm
Dir  Spd
km/h
Gust
km/h
Spd
kts
Gust
kts
23/11:50pm 12.4 9.0 6.0 65 3.1 WNW 13 15 7 8 - - 0.0
23/11:40pm 12.5 9.1 6.1 65 3.2 WNW 13 15 7 8 - - 0.0
23/11:30pm 12.5 9.2 6.3 66 3.1 WNW 13 13 7 7 - - 0.0
23/11:20pm 12.5 9.2 6.6 67 2.9 WNW 13 13 7 7 - - 0.0
23/11:10pm 12.6 9.8 6.8 68 2.9 WNW 11 13 6 7 - - 0.0
23/11:00pm 12.6 10.2 6.9 68 2.9 WNW 9 11 5 6 - - 0.0
23/10:50pm 12.6 10.2 6.8 68 2.9 NW 9 11 5 6 - - 0.0
23/10:40pm 12.6 10.1 6.6 67 3.0 NW 9 9 5 5 - - 0.0
23/10:30pm 12.6 10.1 6.7 67 2.9 NW 9 9 5 5 - - 0.0
23/10:20pm 12.5 10.4 6.6 67 2.9 NW 7 7 4 4 - - 0.0
23/10:10pm 12.7 10.5 6.3 65 3.2 NW 7 7 4 4 - - 0.0
23/10:00pm 12.7 10.3 5.4 61 3.5 NW 7 7 4 4 - - 0.0
23/09:50pm 12.7 10.4 5.5 61 3.5 NW 7 9 4 5 - - 0.0
23/09:40pm 12.6 10.3 5.7 63 3.4 NW 7 9 4 5 - - 0.0
23/09:30pm 12.8 10.5 5.7 62 3.5 NW 7 9 4 5 - - 0.0
23/09:20pm 13.0 9.9 5.7 61 3.6 NNW 11 13 6 7 - - 0.0
23/09:10pm 13.3 10.2 5.5 59 3.8 NNW 11 11 6 6 - - 0.0
23/09:00pm 13.5 11.1 5.1 57 4.1 NW 7 7 4 4 - - 0.0
23/08:50pm 13.6 11.2 5.1 56 4.1 NW 7 9 4 5 - - 0.0
23/08:40pm 13.7 11.3 5.4 57 4.1 NNW 7 9 4 5 - - 0.0
23/08:30pm 13.9 11.0 4.9 54 4.4 NNW 9 9 5 5 - - 0.0
23/08:20pm 14.0 11.1 4.4 52 4.6 NNW 9 11 5 6 - - 0.0
23/08:10pm 13.8 10.9 4.5 53 4.5 N 9 9 5 5 - - 0.0
23/08:00pm 13.7 10.7 3.9 51 4.6 N 9 9 5 5 - - 0.0
23/07:50pm 14.0 11.6 5.1 55 4.3 N 7 9 4 5 - - 0.0
23/07:40pm 14.1 11.8 5.9 57 4.1 NNE 7 9 4 5 - - 0.0
23/07:30pm 14.2 11.9 5.9 57 4.1 N 7 9 4 5 - - 0.0
23/07:20pm 14.0 11.8 6.1 59 3.9 NNE 7 9 4 5 - - 0.0
23/07:10pm 13.9 11.3 5.9 58 4.0 NNE 9 9 5 5 - - 0.0
23/07:00pm 13.8 11.5 5.9 59 3.9 NNE 7 9 4 5 - - 0.0
23/06:50pm 13.8 11.6 6.2 60 3.8 NE 7 7 4 4 - - 0.0
23/06:40pm 13.8 11.6 6.4 61 3.7 NNE 7 7 4 4 - - 0.0
23/06:30pm 13.9 11.4 6.4 60 3.8 NE 9 9 5 5 - - 0.0
23/06:20pm 13.9 11.8 6.6 61 3.7 NE 7 7 4 4 - - 0.0
23/06:10pm 13.9 11.8 6.8 62 3.6 NNE 7 9 4 5 - - 0.0
23/06:00pm 14.0 11.9 6.8 62 3.6 NE 7 7 4 4 - - 0.0
23/05:50pm 14.0 11.9 6.8 62 3.6 NE 7 7 4 4 - - 0.0
23/05:40pm 14.1 11.7 6.8 61 3.7 NNE 9 9 5 5 - - 0.0
23/05:30pm 14.1 12.0 6.7 61 3.7 NE 7 7 4 4 - - 0.0
23/05:20pm 14.1 12.1 7.1 62 3.6 NE 7 9 4 5 - - 0.0
23/05:10pm 14.1 12.1 7.2 63 3.5 NE 7 9 4 5 - - 0.0
23/05:00pm 14.4 12.4 7.2 62 3.7 NNE 7 9 4 5 - - 0.0
23/04:50pm 14.6 12.3 7.3 61 3.7 NE 9 11 5 6 - - 0.0
23/04:40pm 14.8 12.5 7.3 61 3.8 NE 9 11 5 6 - - 0.0
23/04:30pm 15.0 12.7 7.5 61 3.9 NE 9 9 5 5 - - 0.0
23/04:20pm 15.2 12.9 7.6 60 3.9 NE 9 11 5 6 - - 0.0
23/04:10pm 15.5 13.7 7.8 60 4.0 NE 7 9 4 5 - - 0.0
23/04:00pm 15.8 13.9 7.7 58 4.2 NE 7 11 4 6 - - 0.0
23/03:50pm 16.0 14.2 7.8 58 4.3 NE 7 9 4 5 - - 0.0
23/03:40pm 16.1 13.9 7.7 57 4.4 NE 9 11 5 6 - - 0.0
23/03:30pm 16.6 15.0 8.0 57 4.5 NNE 6 7 3 4 - - 0.0
23/03:20pm 16.9 15.3 8.0 55 4.7 NNE 6 9 3 5 - - 0.0
23/03:10pm 16.9 15.2 7.6 54 4.9 NNE 6 7 3 4 - - 0.0
23/03:00pm 17.0 15.1 7.4 53 5.0 NNE 7 9 4 5 - - 0.0
23/02:50pm 17.5 15.8 7.7 52 5.2 NNE 6 9 3 5 - - 0.0
23/02:40pm 17.8 16.3 6.9 49 5.7 NNW 4 7 2 4 - - 0.0
23/02:30pm 18.0 16.0 7.2 49 5.6 N 7 11 4 6 - - 0.0
23/02:20pm 18.6 17.3 7.8 49 5.7 W 4 6 2 3 - - 0.0
23/02:10pm 18.3 16.4 7.6 49 5.6 WNW 7 9 4 5 - - 0.0
23/02:00pm 17.7 16.5 8.2 53 5.0 NNE 4 7 2 4 - - 0.0
23/01:50pm 17.4 15.4 7.0 50 5.4 NE 7 9 4 5 - - 0.0
23/01:40pm 17.1 15.4 7.4 53 5.1 NNE 6 9 3 5 - - 0.0
23/01:30pm 16.7 14.7 7.0 52 5.0 N 7 9 4 5 - - 0.0
23/01:20pm 16.8 14.9 7.5 54 4.8 NNW 7 11 4 6 - - 0.0
23/01:10pm 16.9 15.2 7.6 54 4.9 NE 6 9 3 5 - - 0.0
23/01:00pm 16.2 14.2 6.9 54 4.8 NNE 7 11 4 6 - - 0.0
23/12:50pm 15.9 13.5 7.0 55 4.6 NNE 9 11 5 6 - - 0.0
23/12:40pm 16.3 14.3 7.2 55 4.7 NNE 7 11 4 6 - - 0.0
23/12:30pm 16.4 14.1 7.4 55 4.7 NNE 9 11 5 6 - - 0.0
23/12:20pm 16.8 15.1 7.5 54 4.8 N 6 7 3 4 - - 0.0
23/12:10pm 17.1 15.1 7.3 52 5.1 N 7 11 4 6 - - 0.0
23/12:00pm 16.9 15.2 7.4 53 4.9 E 6 9 3 5 - - 0.0
23/11:50am 16.8 14.5 7.5 54 4.8 ENE 9 11 5 6 - - 0.0
23/11:40am 17.3 15.7 7.8 53 5.0 N 6 9 3 5 - - 0.0
23/11:30am 17.2 15.5 7.7 53 5.0 NNE 6 13 3 7 - - 0.0
23/11:20am 17.0 14.9 6.8 51 5.3 NW 7 11 4 6 - - 0.0
23/11:10am 17.1 14.6 4.0 41 6.4 NNW 6 7 3 4 - - 0.0
23/11:00am 17.7 16.1 4.5 41 6.5 N 2 6 1 3 - - 0.0
23/10:50am 16.8 15.1 4.0 42 6.2 SE 2 4 1 2 - - 0.0
23/10:40am 16.3 14.4 4.7 46 5.7 ESE 4 7 2 4 - - 0.0
23/10:30am 16.2 14.1 5.7 49 5.3 E 6 9 3 5 - - 0.0

Other formats

Comma delimited format used in spreadsheet applications
http://www.bom.gov.au/fwo/IDQ60801/IDQ60801.99128.axf

JavaScript Object Notation format (JSON) in row-major order
http://www.bom.gov.au/fwo/IDQ60801/IDQ60801.99128.json

Data quality

Most of these data are generated automatically and are frequently updated. Quality checks on data are not normally performed. It is possible for incorrect values to appear. Refer to information at About Latest Weather Observations and please check the disclaimer before using these data.